createdAt,value
2022-12-26T00:01:33.206Z,-28.2
2022-12-26T00:03:34.947Z,-28
2022-12-26T00:05:36.333Z,-27.7
2022-12-26T00:07:38.153Z,-28
2022-12-26T00:09:39.950Z,-28
2022-12-26T00:11:41.519Z,-27.9
2022-12-26T00:17:44.912Z,-28
2022-12-26T00:19:46.757Z,-27.8
2022-12-26T00:21:47.774Z,-27.8
2022-12-26T00:23:49.460Z,-28.2
2022-12-26T00:25:51.170Z,-27.9
2022-12-26T00:27:52.810Z,-28
2022-12-26T00:31:55.498Z,-27.7
2022-12-26T00:33:57.286Z,-27.7
2022-12-26T00:35:58.293Z,-28
2022-12-26T00:37:59.926Z,-27.8
2022-12-26T00:44:03.655Z,-27.9
2022-12-26T00:46:05.107Z,-27.9
2022-12-26T00:48:06.291Z,-28.2
2022-12-26T00:50:14.483Z,-28.2
2022-12-26T00:52:09.474Z,-27.8
2022-12-26T00:54:11.277Z,-27.8
2022-12-26T00:58:14.099Z,-27.9
2022-12-26T01:00:15.111Z,-28
2022-12-26T01:02:16.294Z,-27.9
2022-12-26T01:04:17.784Z,-28
2022-12-26T01:06:18.767Z,-28.3
2022-12-26T01:08:23.934Z,-28
2022-12-26T01:10:21.332Z,-27.8
2022-12-26T01:12:22.476Z,-28.2
2022-12-26T01:14:23.955Z,-27.7
2022-12-26T01:16:25.850Z,-27.9
2022-12-26T01:18:27.375Z,-27.9
2022-12-26T01:20:28.730Z,-27.8
2022-12-26T01:22:29.937Z,-28
2022-12-26T01:24:31.203Z,-27.6
2022-12-26T01:26:32.893Z,-27.7
2022-12-26T01:30:36.040Z,-27.9
2022-12-26T01:32:37.191Z,-28
2022-12-26T01:34:39.016Z,-27.7
2022-12-26T01:36:40.136Z,-28.1
2022-12-26T01:38:41.484Z,-28.1
2022-12-26T01:42:45.016Z,-28.3
2022-12-26T01:44:46.715Z,-27.8
2022-12-26T01:46:47.699Z,-28
2022-12-26T01:48:48.766Z,-28
2022-12-26T01:50:50.169Z,-28
2022-12-26T01:52:51.990Z,-28.1
2022-12-26T01:54:53.308Z,-27.9
2022-12-26T01:56:54.502Z,-27.9
2022-12-26T01:58:56.073Z,-27.9
2022-12-26T02:00:57.909Z,-27.8
2022-12-26T02:02:59.857Z,-27.9
2022-12-26T02:05:01.182Z,-28.3
2022-12-26T02:07:02.859Z,-27.8
2022-12-26T02:09:04.177Z,-27.9
2022-12-26T02:11:05.249Z,-27.6
2022-12-26T02:13:06.623Z,-28
2022-12-26T02:15:07.587Z,-27.7
2022-12-26T02:19:09.747Z,-27.9
2022-12-26T02:21:11.229Z,-28.2
2022-12-26T02:23:12.820Z,-28
2022-12-26T02:25:14.490Z,-28
2022-12-26T02:27:16.041Z,-27.8
2022-12-26T02:29:17.507Z,-27.9
2022-12-26T02:31:18.863Z,-27.8
2022-12-26T02:33:20.348Z,-27.8
2022-12-26T02:35:21.792Z,-28
2022-12-26T02:41:26.942Z,-28
2022-12-26T02:43:28.764Z,-28
2022-12-26T02:45:30.590Z,-27.9
2022-12-26T02:47:31.681Z,-28
2022-12-26T02:49:33.351Z,-27.8
2022-12-26T02:51:34.486Z,-27.8
2022-12-26T02:53:36.011Z,-27.9
2022-12-26T02:55:37.433Z,-27.7
2022-12-26T02:57:38.824Z,-27.9
2022-12-26T03:01:42.041Z,-28.2
2022-12-26T03:03:43.794Z,-27.8
2022-12-26T03:05:45.487Z,-27.9
2022-12-26T03:07:46.953Z,-27.9
2022-12-26T03:11:49.723Z,-27.8
2022-12-26T03:13:51.625Z,-27.9
2022-12-26T03:15:53.080Z,-27.9
2022-12-26T03:17:54.025Z,-27.8
2022-12-26T03:21:56.558Z,-27.9
2022-12-26T03:23:57.921Z,-27.9
2022-12-26T03:25:59.827Z,-27.9
2022-12-26T03:28:01.733Z,-27.9
2022-12-26T03:28:45.500Z,-28.2
2022-12-26T03:32:48.842Z,-27.6
2022-12-26T03:34:50.369Z,-28
2022-12-26T03:36:51.648Z,-28.2
2022-12-26T03:38:52.750Z,-28.1
2022-12-26T03:44:56.771Z,-28
2022-12-26T03:46:57.756Z,-27.6
2022-12-26T03:48:59.422Z,-27.8
2022-12-26T03:51:00.880Z,-27.8
2022-12-26T03:53:02.333Z,-28
2022-12-26T03:55:03.343Z,-28.1
2022-12-26T03:59:06.127Z,-27.7
2022-12-26T04:01:07.503Z,-27.9
2022-12-26T04:03:08.878Z,-27.7
2022-12-26T04:05:10.399Z,-28
2022-12-26T04:07:11.765Z,-28
2022-12-26T04:09:13.670Z,-28
2022-12-26T04:11:15.550Z,-28
2022-12-26T04:13:17.212Z,-28.1
2022-12-26T04:15:18.419Z,-28
2022-12-26T04:17:19.990Z,-28.2
2022-12-26T04:19:21.465Z,-27.7
2022-12-26T04:21:23.282Z,-27.9
2022-12-26T04:23:25.072Z,-27.8
2022-12-26T04:25:49.242Z,-28
2022-12-26T04:27:27.477Z,-27.9
2022-12-26T04:29:29.263Z,-28.2
2022-12-26T04:31:30.669Z,-28
2022-12-26T04:33:32.408Z,-28
2022-12-26T04:35:33.786Z,-28
2022-12-26T04:37:35.594Z,-27.8
2022-12-26T04:39:36.647Z,-27.9
2022-12-26T04:43:48.025Z,-27.9
2022-12-26T04:45:41.266Z,-27.6
2022-12-26T04:47:42.484Z,-27.8
2022-12-26T04:49:44.386Z,-27.9
2022-12-26T04:51:46.052Z,-28.2
2022-12-26T04:53:47.437Z,-27.9
2022-12-26T04:55:48.724Z,-28
2022-12-26T04:57:50.138Z,-27.9
2022-12-26T04:59:52.032Z,-27.8
2022-12-26T05:01:53.704Z,-27.6
2022-12-26T05:03:54.638Z,-27.9
2022-12-26T05:05:55.898Z,-28.1
2022-12-26T05:07:57.277Z,-27.7
2022-12-26T05:09:58.723Z,-28.1
2022-12-26T05:12:00.172Z,-27.8
2022-12-26T05:14:01.868Z,-28.4
2022-12-26T05:16:02.935Z,-27.8
2022-12-26T05:18:04.083Z,-27.9
2022-12-26T05:20:05.842Z,-28.1
2022-12-26T05:22:07.309Z,-27.7
2022-12-26T05:24:08.349Z,-27.9
2022-12-26T05:26:10.289Z,-28.1
2022-12-26T05:28:11.817Z,-27.8
2022-12-26T05:30:13.464Z,-28
2022-12-26T05:32:14.594Z,-27.8
2022-12-26T05:34:15.548Z,-27.9
2022-12-26T05:36:16.512Z,-28.3
2022-12-26T05:42:19.844Z,-28.3
2022-12-26T05:44:21.091Z,-27.7
2022-12-26T05:46:22.115Z,-27.7
2022-12-26T05:48:23.350Z,-27.9
2022-12-26T05:50:24.696Z,-27.8
2022-12-26T05:52:25.696Z,-27.8
2022-12-26T05:54:35.336Z,-28.1
2022-12-26T05:56:28.395Z,-27.8
2022-12-26T05:58:29.378Z,-28.1
2022-12-26T06:00:30.494Z,-27.9
2022-12-26T06:02:32.110Z,-27.7
2022-12-26T06:08:36.283Z,-27.9
2022-12-26T06:10:37.948Z,-27.7
2022-12-26T06:12:39.634Z,-28
2022-12-26T06:14:41.479Z,-27.7
2022-12-26T06:16:43.196Z,-27.7
2022-12-26T06:18:44.277Z,-27.9
2022-12-26T06:20:45.384Z,-28.4
2022-12-26T06:22:46.639Z,-27.8
2022-12-26T06:24:48.227Z,-27.9
2022-12-26T06:26:49.542Z,-28.3
2022-12-26T06:28:50.771Z,-27.7
2022-12-26T06:30:51.908Z,-27.8
2022-12-26T06:32:53.269Z,-28
2022-12-26T06:34:54.561Z,-27.9
2022-12-26T06:36:55.876Z,-27.9
2022-12-26T06:38:57.404Z,-28
2022-12-26T06:40:59.061Z,-27.8
2022-12-26T06:43:00.768Z,-28
2022-12-26T06:45:02.652Z,-27.9
2022-12-26T06:47:04.419Z,-27.7
2022-12-26T06:49:06.065Z,-28.1
2022-12-26T06:51:07.191Z,-27.8
2022-12-26T06:55:10.382Z,-28
2022-12-26T06:57:12.146Z,-27.7
2022-12-26T06:59:13.274Z,-28
2022-12-26T07:01:14.730Z,-27.8
2022-12-26T07:07:18.875Z,-27.9
2022-12-26T07:11:21.949Z,-28
2022-12-26T07:13:23.008Z,-28.1
2022-12-26T07:15:24.275Z,-28
2022-12-26T07:17:25.667Z,-28
2022-12-26T07:21:27.622Z,-27.8
2022-12-26T07:23:29.267Z,-27.8
2022-12-26T07:25:30.253Z,-28
2022-12-26T07:27:31.399Z,-28.2
2022-12-26T07:29:33.169Z,-28.4
2022-12-26T07:31:34.732Z,-28
2022-12-26T07:33:36.357Z,-27.9
2022-12-26T07:35:38.202Z,-28
2022-12-26T07:37:39.662Z,-27.9
2022-12-26T07:39:40.875Z,-27.9
2022-12-26T07:43:43.089Z,-27.8
2022-12-26T07:45:45.912Z,-27.9
2022-12-26T07:47:45.404Z,-28.1
2022-12-26T07:49:46.667Z,-27.5
2022-12-26T07:51:47.965Z,-27.7
2022-12-26T07:53:49.743Z,-27.9
2022-12-26T07:55:50.932Z,-27.8
2022-12-26T07:57:52.824Z,-27.9
2022-12-26T07:59:54.354Z,-27.7
2022-12-26T08:05:58.907Z,-28
2022-12-26T08:08:00.362Z,-28.2
2022-12-26T08:10:10.925Z,-27.9
2022-12-26T08:12:03.503Z,-27.9
2022-12-26T08:14:04.918Z,-28.3
2022-12-26T08:16:06.913Z,-27.8
2022-12-26T08:20:09.543Z,-28.4
2022-12-26T08:22:10.922Z,-28
2022-12-26T08:24:12.128Z,-28
2022-12-26T08:26:13.160Z,-28.2
2022-12-26T08:30:15.673Z,-27.9
2022-12-26T08:32:17.189Z,-28
2022-12-26T08:34:18.556Z,-27.9
2022-12-26T08:36:19.520Z,-28
2022-12-26T08:38:21.326Z,-21.6
2022-12-26T08:40:41.786Z,-18.5
2022-12-26T08:42:24.024Z,-10.4
2022-12-26T08:44:27.062Z,4.1
2022-12-26T08:46:25.983Z,-3.8
2022-12-26T08:48:27.438Z,-27
2022-12-26T08:50:28.442Z,-27.9
2022-12-26T08:52:29.678Z,-28
2022-12-26T08:54:31.375Z,-27.9
2022-12-26T08:56:32.471Z,-28
2022-12-26T08:58:34.333Z,-28
2022-12-26T09:00:35.751Z,-27.7
2022-12-26T09:02:36.895Z,-27.8
2022-12-26T09:04:38.484Z,-27.8
2022-12-26T09:06:39.763Z,-27.7
2022-12-26T09:08:40.912Z,-27.9
2022-12-26T09:10:42.794Z,-27.9
2022-12-26T09:14:47.683Z,-28.2
2022-12-26T09:16:50.627Z,-27.9
2022-12-26T09:18:49.712Z,-27.7
2022-12-26T09:20:50.980Z,-27.9
2022-12-26T09:22:52.422Z,-28
2022-12-26T09:24:53.702Z,-27.6
2022-12-26T09:26:55.311Z,-28.1
2022-12-26T09:28:57.058Z,-27.8
2022-12-26T09:30:58.303Z,-28
2022-12-26T09:35:02.911Z,-28.3
2022-12-26T09:37:03.456Z,-27.7
2022-12-26T09:41:06.445Z,-28.2
2022-12-26T09:43:08.237Z,-27.8
2022-12-26T09:45:09.672Z,-27.9
2022-12-26T09:47:11.466Z,-27.6
2022-12-26T09:49:13.339Z,-27.8
2022-12-26T09:51:14.667Z,-27.7
2022-12-26T09:53:16.557Z,-28.2
2022-12-26T09:55:18.394Z,-27.7
2022-12-26T09:57:19.407Z,-27.8
2022-12-26T10:03:24.247Z,-27.9
2022-12-26T10:05:25.949Z,-28
2022-12-26T10:07:26.920Z,-27.9
2022-12-26T10:09:28.144Z,-27.8
2022-12-26T10:11:29.305Z,-27.9
2022-12-26T10:13:30.706Z,-27.7
2022-12-26T10:18:17.761Z,-28
2022-12-26T10:24:21.891Z,-28
2022-12-26T10:26:23.772Z,-28
2022-12-26T10:28:24.860Z,-28
2022-12-26T10:30:26.586Z,-28.1
2022-12-26T10:32:28.320Z,-27.9
2022-12-26T10:34:29.788Z,-28
2022-12-26T10:36:30.947Z,-27.9
2022-12-26T10:38:31.983Z,-27.9
2022-12-26T10:40:32.953Z,-27.9
2022-12-26T10:42:34.713Z,-28
2022-12-26T10:44:35.673Z,-28.2
2022-12-26T10:46:37.360Z,-28.1
2022-12-26T10:48:38.488Z,-27.9
2022-12-26T10:50:40.069Z,-27.9
2022-12-26T10:52:41.664Z,-27.7
2022-12-26T10:54:42.605Z,-28
2022-12-26T10:56:44.235Z,-27.9
2022-12-26T10:58:45.977Z,-27.9
2022-12-26T11:00:47.318Z,-28.2
2022-12-26T11:02:48.791Z,-27.9
2022-12-26T11:05:13.480Z,-28.2
2022-12-26T11:06:51.029Z,-28
2022-12-26T11:10:54.189Z,-27.7
2022-12-26T11:12:55.720Z,-28
2022-12-26T11:14:57.432Z,-27.8
2022-12-26T11:16:59.281Z,-27.9
2022-12-26T11:21:01.992Z,-28.3
2022-12-26T11:23:03.343Z,-27.6
2022-12-26T11:25:05.182Z,-27.9
2022-12-26T11:27:11.125Z,-27.9
2022-12-26T11:29:07.640Z,-20.6
2022-12-26T11:31:09.483Z,-21.3
2022-12-26T11:33:14.408Z,-24
2022-12-26T11:35:12.580Z,-23.7
2022-12-26T11:37:14.211Z,-19.7
2022-12-26T11:39:15.680Z,-21.2
2022-12-26T11:41:16.648Z,-21.7
2022-12-26T11:43:18.357Z,-21
2022-12-26T11:45:19.781Z,-25.2
2022-12-26T11:47:21.735Z,-24.6
2022-12-26T11:49:23.053Z,-28.1
2022-12-26T11:51:24.231Z,-28
2022-12-26T11:53:25.358Z,-27.9
2022-12-26T11:55:26.821Z,-23
2022-12-26T11:57:28.180Z,-19
2022-12-26T11:59:29.734Z,-17.1
2022-12-26T12:01:30.934Z,-11.9
2022-12-26T12:05:33.772Z,-19.9
2022-12-26T12:07:34.681Z,-20.7
2022-12-26T12:09:35.868Z,-27.8
2022-12-26T12:11:37.738Z,-27.8
2022-12-26T12:13:39.218Z,-28
2022-12-26T12:15:40.287Z,-20.5
2022-12-26T12:21:44.803Z,-27.8
2022-12-26T12:23:46.324Z,-27.9
2022-12-26T12:25:47.395Z,-27.9
2022-12-26T12:27:49.044Z,-27.9
2022-12-26T12:29:50.913Z,-27.9
2022-12-26T12:31:52.799Z,-27.6
2022-12-26T12:33:54.139Z,-28.3
2022-12-26T12:35:56.061Z,-27.8
2022-12-26T12:37:57.623Z,-27.7
2022-12-26T12:42:00.405Z,-28
2022-12-26T12:44:01.757Z,-28
2022-12-26T12:46:03.764Z,-27.9
2022-12-26T12:48:05.441Z,-27.8
2022-12-26T12:50:07.078Z,-27.9
2022-12-26T12:52:08.588Z,-28.2
2022-12-26T12:54:10.287Z,-28
2022-12-26T12:56:11.744Z,-27.9
2022-12-26T12:58:12.776Z,-27.9
2022-12-26T13:04:17.143Z,-28
2022-12-26T13:06:18.033Z,-27.8
2022-12-26T13:08:19.218Z,-27.8
2022-12-26T13:12:22.367Z,-28.2
2022-12-26T13:14:24.219Z,-28
2022-12-26T13:18:26.678Z,-27.8
2022-12-26T13:20:28.315Z,-28
2022-12-26T13:22:30.151Z,-27.7
2022-12-26T13:24:31.793Z,-28
2022-12-26T13:30:36.413Z,-27.9
2022-12-26T13:32:39.633Z,-27.8
2022-12-26T13:34:39.040Z,-28.2
2022-12-26T13:36:40.104Z,-28.2
2022-12-26T13:38:41.222Z,-28
2022-12-26T13:40:42.927Z,-28.1
2022-12-26T13:42:44.402Z,-27.9
2022-12-26T13:44:48.765Z,-27.9
2022-12-26T13:46:46.983Z,-28.7
2022-12-26T13:48:48.533Z,-28.8
2022-12-26T13:50:53.370Z,-28.8
2022-12-26T13:52:51.219Z,-28
2022-12-26T13:54:52.188Z,-27.9
2022-12-26T13:56:53.111Z,-27.9
2022-12-26T13:58:54.937Z,-28
2022-12-26T14:00:56.008Z,-28
2022-12-26T14:03:17.074Z,-27.7
2022-12-26T14:04:59.239Z,-27.9
2022-12-26T14:07:00.204Z,-28.8
2022-12-26T14:09:02.126Z,-28.3
2022-12-26T14:11:03.183Z,-27.9
2022-12-26T14:13:05.038Z,-28.9
2022-12-26T14:17:07.881Z,-28.8
2022-12-26T14:19:09.731Z,-28.7
2022-12-26T14:21:11.260Z,-28.7
2022-12-26T14:23:13.110Z,-29
2022-12-26T14:29:17.122Z,-28.7
2022-12-26T14:31:18.825Z,-28.8
2022-12-26T14:33:20.282Z,-28.8
2022-12-26T14:35:22.176Z,-28.7
2022-12-26T14:37:23.513Z,-28.7
2022-12-26T14:39:25.044Z,-28.8
2022-12-26T14:41:26.424Z,-28.6
2022-12-26T14:43:27.918Z,-28.7
2022-12-26T14:45:29.750Z,-28.7
2022-12-26T14:47:31.326Z,-28.8
2022-12-26T14:49:35.649Z,-28.6
2022-12-26T14:51:33.691Z,-28.9
2022-12-26T14:53:35.474Z,-28.9
2022-12-26T14:55:36.984Z,-29
2022-12-26T14:57:38.028Z,-28.7
2022-12-26T14:59:39.765Z,-29.1
2022-12-26T15:01:41.259Z,-29
2022-12-26T15:03:42.349Z,-28.8
2022-12-26T15:05:44.210Z,-28.8
2022-12-26T15:07:45.194Z,-28.7
2022-12-26T15:11:48.790Z,-28.9
2022-12-26T15:13:50.517Z,-28.9
2022-12-26T15:15:51.499Z,-28.6
2022-12-26T15:17:52.686Z,-28.9
2022-12-26T15:19:53.640Z,-28.7
2022-12-26T15:21:55.281Z,-27.9
2022-12-26T15:25:58.455Z,-27.9
2022-12-26T15:27:59.490Z,-28.8
2022-12-26T15:30:00.611Z,-29
2022-12-26T15:32:02.345Z,-27.9
2022-12-26T15:34:03.646Z,-28.9
2022-12-26T15:36:04.830Z,-29.1
2022-12-26T15:38:06.477Z,-28.2
2022-12-26T15:42:08.964Z,-28
2022-12-26T15:44:10.838Z,-28.2
2022-12-26T15:48:14.266Z,-28
2022-12-26T15:50:16.152Z,-28
2022-12-26T15:52:17.523Z,-28.1
2022-12-26T15:54:19.063Z,-28
2022-12-26T15:58:21.762Z,-28
2022-12-26T16:00:23.591Z,-28.1
2022-12-26T16:02:24.960Z,-27.7
2022-12-26T16:04:26.744Z,-27.9
2022-12-26T16:10:30.370Z,-27.9
2022-12-26T16:12:31.950Z,-29.2
2022-12-26T16:14:33.803Z,-27.8
2022-12-26T16:16:35.595Z,-27.9
2022-12-26T16:18:36.606Z,-28.2
2022-12-26T16:20:38.488Z,-28
2022-12-26T16:24:41.074Z,-28.2
2022-12-26T16:26:42.249Z,-27.9
2022-12-26T16:28:43.956Z,-27.9
2022-12-26T16:30:45.609Z,-28
2022-12-26T16:34:48.162Z,-27.9
2022-12-26T16:36:49.896Z,-28.2
2022-12-26T16:38:50.953Z,-27.7
2022-12-26T16:40:52.696Z,-29.2
2022-12-26T16:42:54.477Z,-27.8
2022-12-26T16:44:55.555Z,-28
2022-12-26T16:46:56.810Z,-27.8
2022-12-26T16:50:59.380Z,-29.1
2022-12-26T16:53:00.435Z,-28.2
2022-12-26T16:55:01.844Z,-27.8
2022-12-26T16:57:03.169Z,-28.2
2022-12-26T16:59:04.959Z,-27.8
2022-12-26T16:59:48.657Z,-28.2
2022-12-26T17:01:49.894Z,-28
2022-12-26T17:03:50.981Z,-28.2
2022-12-26T17:05:52.350Z,-27.8
2022-12-26T17:07:54.060Z,-27.8
2022-12-26T17:09:55.174Z,-28.1
2022-12-26T17:11:56.199Z,-27.9
2022-12-26T17:13:57.962Z,-27.9
2022-12-26T17:15:59.248Z,-27.9
2022-12-26T17:18:00.994Z,-27.8
2022-12-26T17:20:02.134Z,-28
2022-12-26T17:22:03.497Z,-28.1
2022-12-26T17:24:04.809Z,-27.9
2022-12-26T17:26:05.801Z,-27.7
2022-12-26T17:30:08.462Z,-27.9
2022-12-26T17:32:10.111Z,-28.1
2022-12-26T17:34:11.863Z,-28
2022-12-26T17:38:14.607Z,-28
2022-12-26T17:40:16.376Z,-28.1
2022-12-26T17:44:18.970Z,-28.2
2022-12-26T17:46:20.809Z,-27.9
2022-12-26T17:48:22.275Z,-27.6
2022-12-26T17:50:23.837Z,-27.8
2022-12-26T17:52:25.003Z,-27.9
2022-12-26T17:54:26.688Z,-28
2022-12-26T17:56:27.642Z,-27.9
2022-12-26T17:58:29.044Z,-28.4
2022-12-26T18:00:30.230Z,-27.9
2022-12-26T18:02:31.873Z,-27.8
2022-12-26T18:06:34.664Z,-28.1
2022-12-26T18:08:36.499Z,-27.8
2022-12-26T18:10:38.087Z,-27.8
2022-12-26T18:12:39.886Z,-27.7
2022-12-26T18:14:40.868Z,-28
2022-12-26T18:16:42.184Z,-28.2
2022-12-26T18:18:43.333Z,-28
2022-12-26T18:20:44.597Z,-28
2022-12-26T18:22:46.539Z,-28
2022-12-26T18:28:51.480Z,-27.7
2022-12-26T18:30:52.570Z,-28
2022-12-26T18:32:53.768Z,-27.8
2022-12-26T18:34:55.088Z,-28.2
2022-12-26T18:36:56.752Z,-27.8
2022-12-26T18:38:57.871Z,-27.9
2022-12-26T18:43:00.651Z,-28.2
2022-12-26T18:45:01.838Z,-27.9
2022-12-26T18:47:02.906Z,-27.9
2022-12-26T18:49:04.150Z,-27.9
2022-12-26T18:55:07.599Z,-28.4
2022-12-26T18:57:09.343Z,-27.6
2022-12-26T18:59:11.213Z,-28.1
2022-12-26T19:01:12.271Z,-28
2022-12-26T19:03:13.979Z,-27.8
2022-12-26T19:05:15.592Z,-28
2022-12-26T19:09:18.421Z,-28.1
2022-12-26T19:11:20.032Z,-28.3
2022-12-26T19:13:21.261Z,-27.9
2022-12-26T19:15:22.829Z,-27.9
2022-12-26T19:19:25.839Z,-27.9
2022-12-26T19:21:27.053Z,-27.8
2022-12-26T19:23:28.685Z,-28
2022-12-26T19:25:30.117Z,-27.7
2022-12-26T19:27:31.882Z,-28.3
2022-12-26T19:29:33.623Z,-28
2022-12-26T19:31:34.697Z,-27.9
2022-12-26T19:33:35.604Z,-28.1
2022-12-26T19:37:37.762Z,-28
2022-12-26T19:41:40.883Z,-27.9
2022-12-26T19:43:42.433Z,-28
2022-12-26T19:45:43.731Z,-28
2022-12-26T19:47:45.584Z,-27.9
2022-12-26T19:51:48.826Z,-27.9
2022-12-26T19:53:50.266Z,-28
2022-12-26T19:55:51.402Z,-28
2022-12-26T19:57:53.189Z,-27.8
2022-12-26T19:59:54.149Z,-27.9
2022-12-26T20:01:55.911Z,-27.8
2022-12-26T20:03:57.566Z,-27.9
2022-12-26T20:05:59.065Z,-27.9
2022-12-26T20:08:00.538Z,-28
2022-12-26T20:10:01.528Z,-29
2022-12-26T20:12:03.026Z,-28
2022-12-26T20:14:04.222Z,-27.9
2022-12-26T20:16:05.801Z,-27.9
2022-12-26T20:18:09.794Z,-28.1
2022-12-26T20:20:08.360Z,-28
2022-12-26T20:22:10.100Z,-27.8
2022-12-26T20:24:12.030Z,-27.9
2022-12-26T20:26:13.197Z,-27.8
2022-12-26T20:28:14.638Z,-27.7
2022-12-26T20:30:15.873Z,-28
2022-12-26T20:32:17.493Z,-28.1
2022-12-26T20:36:20.217Z,-28.2
2022-12-26T20:38:21.902Z,-28.2
2022-12-26T20:40:25.326Z,-28
2022-12-26T20:42:24.765Z,-28.1
2022-12-26T20:44:26.527Z,-28.9
2022-12-26T20:46:28.338Z,-28.1
2022-12-26T20:48:30.108Z,-27.9
2022-12-26T20:50:31.819Z,-29.1
2022-12-26T20:52:33.097Z,-27.9
2022-12-26T20:54:34.855Z,-27.9
2022-12-26T20:56:35.964Z,-28
2022-12-26T20:58:37.203Z,-27.9
2022-12-26T21:00:38.168Z,-29
2022-12-26T21:02:40.080Z,-29
2022-12-26T21:04:41.156Z,-28
2022-12-26T21:06:42.796Z,-28.4
2022-12-26T21:08:44.678Z,-28.3
2022-12-26T21:10:46.231Z,-28
2022-12-26T21:12:47.720Z,-28.1
2022-12-26T21:14:49.142Z,-27.9
2022-12-26T21:16:50.499Z,-29
2022-12-26T21:18:51.952Z,-29
2022-12-26T21:22:54.078Z,-29.1
2022-12-26T21:24:55.237Z,-29.1
2022-12-26T21:26:56.494Z,-28.8
2022-12-26T21:28:57.544Z,-28.8
2022-12-26T21:35:10.464Z,-29
2022-12-26T21:37:02.609Z,-28.9
2022-12-26T21:39:03.875Z,-28.6
2022-12-26T21:41:05.516Z,-28.9
2022-12-26T21:43:06.472Z,-29
2022-12-26T21:45:07.679Z,-27.8
2022-12-26T21:49:11.233Z,-27.8
2022-12-26T21:51:12.753Z,-28
2022-12-26T21:53:14.388Z,-27.8
2022-12-26T21:55:15.535Z,-27.8
2022-12-26T22:01:20.243Z,-29.1
2022-12-26T22:03:21.520Z,-28.8
2022-12-26T22:05:23.015Z,-28.9
2022-12-26T22:07:24.163Z,-28.9
2022-12-26T22:09:25.639Z,-29
2022-12-26T22:11:26.609Z,-29.1
2022-12-26T22:13:27.784Z,-28.7
2022-12-26T22:15:28.976Z,-28.7
2022-12-26T22:17:30.306Z,-28.9
2022-12-26T22:19:32.050Z,-28.7
2022-12-26T22:21:33.215Z,-28.8
2022-12-26T22:23:34.714Z,-29
2022-12-26T22:25:36.256Z,-28.9
2022-12-26T22:27:37.971Z,-29
2022-12-26T22:29:39.861Z,-28.8
2022-12-26T22:31:41.798Z,-29
2022-12-26T22:33:43.374Z,-29.2
2022-12-26T22:35:44.706Z,-28.9
2022-12-26T22:37:46.472Z,-28.8
2022-12-26T22:39:48.454Z,-29.1
2022-12-26T22:43:51.383Z,-28.8
2022-12-26T22:47:54.217Z,-28.7
2022-12-26T22:49:55.785Z,-28.9
2022-12-26T22:51:57.116Z,-28.8
2022-12-26T22:53:58.641Z,-28.9
2022-12-26T22:58:02.491Z,-29.1
2022-12-26T23:00:08.639Z,-28.9
2022-12-26T23:02:05.449Z,-28.9
2022-12-26T23:04:06.868Z,-29
2022-12-26T23:06:08.040Z,-28.9
2022-12-26T23:08:09.699Z,-29
2022-12-26T23:10:10.821Z,-27.9
2022-12-26T23:12:12.216Z,-28
2022-12-26T23:14:13.892Z,-28
2022-12-26T23:16:15.673Z,-29.1
2022-12-26T23:18:17.066Z,-28.8
2022-12-26T23:20:18.745Z,-28.8
2022-12-26T23:22:19.956Z,-29
2022-12-26T23:24:21.074Z,-28.8
2022-12-26T23:26:22.235Z,-28
2022-12-26T23:30:25.431Z,-28
2022-12-26T23:32:26.940Z,-28.7
2022-12-26T23:34:28.397Z,-28.8
2022-12-26T23:36:29.925Z,-27.9
2022-12-26T23:42:35.436Z,-27.8
2022-12-26T23:44:37.228Z,-27.9
2022-12-26T23:45:21.101Z,-27.7
2022-12-26T23:47:22.572Z,-28.1
2022-12-26T23:51:25.508Z,-27.8
2022-12-26T23:53:26.994Z,-28
2022-12-26T23:55:28.309Z,-28
2022-12-26T23:57:29.477Z,-28
2022-12-26T23:59:31.489Z,-28.1
